sensor_id;sensor_type;location;lat;lon;timestamp;P1;durP1;ratioP1;P2;durP2;ratioP2
72156;SDS011;60035;52.122;5.406;2024-03-23T00:55:07;19.92;;;7.10;;
72156;SDS011;60035;52.122;5.406;2024-03-23T00:57:35;26.23;;;7.40;;
72156;SDS011;60035;52.122;5.406;2024-03-23T01:00:04;23.88;;;7.18;;
72156;SDS011;60035;52.122;5.406;2024-03-23T01:02:33;19.35;;;6.85;;
72156;SDS011;60035;52.122;5.406;2024-03-23T01:05:01;18.27;;;6.63;;
72156;SDS011;60035;52.122;5.406;2024-03-23T01:07:30;24.20;;;7.25;;
72156;SDS011;60035;52.122;5.406;2024-03-23T01:09:58;20.23;;;6.82;;
72156;SDS011;60035;52.122;5.406;2024-03-23T01:12:27;23.08;;;7.18;;
72156;SDS011;60035;52.122;5.406;2024-03-23T01:14:55;18.90;;;6.05;;
72156;SDS011;60035;52.122;5.406;2024-03-23T01:17:23;19.48;;;6.50;;
72156;SDS011;60035;52.122;5.406;2024-03-23T01:19:52;22.63;;;5.82;;
72156;SDS011;60035;52.122;5.406;2024-03-23T01:22:20;29.52;;;6.30;;
72156;SDS011;60035;52.122;5.406;2024-03-23T01:24:49;19.85;;;6.90;;
72156;SDS011;60035;52.122;5.406;2024-03-23T01:27:20;20.15;;;6.68;;
72156;SDS011;60035;52.122;5.406;2024-03-23T01:29:48;21.88;;;7.32;;
72156;SDS011;60035;52.122;5.406;2024-03-23T01:32:19;20.38;;;6.55;;
72156;SDS011;60035;52.122;5.406;2024-03-23T01:34:47;25.40;;;7.00;;
72156;SDS011;60035;52.122;5.406;2024-03-23T01:37:16;23.23;;;8.25;;
72156;SDS011;60035;52.122;5.406;2024-03-23T01:39:44;26.52;;;7.30;;
72156;SDS011;60035;52.122;5.406;2024-03-23T01:42:14;24.02;;;7.60;;
72156;SDS011;60035;52.122;5.406;2024-03-23T01:44:42;18.20;;;6.47;;
72156;SDS011;60035;52.122;5.406;2024-03-23T01:47:11;22.30;;;7.50;;
72156;SDS011;60035;52.122;5.406;2024-03-23T01:49:39;22.52;;;6.82;;
72156;SDS011;60035;52.122;5.406;2024-03-23T01:52:07;19.52;;;7.13;;
72156;SDS011;60035;52.122;5.406;2024-03-23T01:54:36;19.02;;;6.30;;
72156;SDS011;60035;52.122;5.406;2024-03-23T01:57:05;16.83;;;6.68;;
72156;SDS011;60035;52.122;5.406;2024-03-23T01:59:34;21.75;;;6.63;;
72156;SDS011;60035;52.122;5.406;2024-03-23T02:02:02;18.95;;;6.30;;
72156;SDS011;60035;52.122;5.406;2024-03-23T02:04:31;24.80;;;6.53;;
72156;SDS011;60035;52.122;5.406;2024-03-23T02:06:59;21.90;;;7.97;;
72156;SDS011;60035;52.122;5.406;2024-03-23T02:09:27;20.85;;;7.07;;
72156;SDS011;60035;52.122;5.406;2024-03-23T02:11:56;20.27;;;6.45;;
72156;SDS011;60035;52.122;5.406;2024-03-23T02:14:25;20.40;;;8.07;;
72156;SDS011;60035;52.122;5.406;2024-03-23T02:16:53;22.63;;;6.97;;
72156;SDS011;60035;52.122;5.406;2024-03-23T02:19:21;15.95;;;6.47;;
72156;SDS011;60035;52.122;5.406;2024-03-23T02:21:50;21.55;;;6.70;;
72156;SDS011;60035;52.122;5.406;2024-03-23T02:24:19;22.83;;;7.72;;
72156;SDS011;60035;52.122;5.406;2024-03-23T02:26:48;20.75;;;7.25;;
72156;SDS011;60035;52.122;5.406;2024-03-23T02:29:16;18.85;;;6.78;;
72156;SDS011;60035;52.122;5.406;2024-03-23T02:31:46;21.95;;;6.97;;
72156;SDS011;60035;52.122;5.406;2024-03-23T02:34:15;16.88;;;7.40;;
72156;SDS011;60035;52.122;5.406;2024-03-23T02:36:43;19.60;;;7.45;;
72156;SDS011;60035;52.122;5.406;2024-03-23T02:39:13;19.38;;;6.90;;
72156;SDS011;60035;52.122;5.406;2024-03-23T02:41:42;24.90;;;7.65;;
72156;SDS011;60035;52.122;5.406;2024-03-23T02:44:10;21.00;;;7.38;;
72156;SDS011;60035;52.122;5.406;2024-03-23T02:46:39;20.60;;;6.30;;
72156;SDS011;60035;52.122;5.406;2024-03-23T02:49:07;19.48;;;6.40;;
72156;SDS011;60035;52.122;5.406;2024-03-23T02:51:35;20.25;;;7.38;;
72156;SDS011;60035;52.122;5.406;2024-03-23T02:54:04;21.00;;;6.80;;
72156;SDS011;60035;52.122;5.406;2024-03-23T02:56:33;16.17;;;5.90;;
72156;SDS011;60035;52.122;5.406;2024-03-23T02:59:01;18.42;;;7.10;;
72156;SDS011;60035;52.122;5.406;2024-03-23T03:01:29;20.20;;;6.57;;
72156;SDS011;60035;52.122;5.406;2024-03-23T03:03:58;20.25;;;6.28;;
72156;SDS011;60035;52.122;5.406;2024-03-23T03:06:30;19.55;;;6.60;;
72156;SDS011;60035;52.122;5.406;2024-03-23T03:08:58;20.23;;;6.45;;
72156;SDS011;60035;52.122;5.406;2024-03-23T03:11:27;19.65;;;6.07;;
72156;SDS011;60035;52.122;5.406;2024-03-23T03:13:55;19.48;;;5.53;;
72156;SDS011;60035;52.122;5.406;2024-03-23T03:16:24;17.13;;;5.28;;
72156;SDS011;60035;52.122;5.406;2024-03-23T03:18:52;19.40;;;5.65;;
72156;SDS011;60035;52.122;5.406;2024-03-23T03:21:21;23.02;;;6.05;;
72156;SDS011;60035;52.122;5.406;2024-03-23T03:23:49;13.25;;;4.95;;
72156;SDS011;60035;52.122;5.406;2024-03-23T03:26:18;16.50;;;5.07;;
72156;SDS011;60035;52.122;5.406;2024-03-23T03:28:46;16.05;;;5.72;;
72156;SDS011;60035;52.122;5.406;2024-03-23T03:31:16;14.35;;;5.32;;
72156;SDS011;60035;52.122;5.406;2024-03-23T03:33:46;17.45;;;6.07;;
72156;SDS011;60035;52.122;5.406;2024-03-23T03:36:18;20.33;;;6.13;;
72156;SDS011;60035;52.122;5.406;2024-03-23T03:38:48;20.42;;;6.35;;
72156;SDS011;60035;52.122;5.406;2024-03-23T03:41:16;12.98;;;5.22;;
72156;SDS011;60035;52.122;5.406;2024-03-23T03:43:45;16.92;;;5.70;;
72156;SDS011;60035;52.122;5.406;2024-03-23T03:46:13;14.02;;;5.00;;
72156;SDS011;60035;52.122;5.406;2024-03-23T03:48:42;20.83;;;6.15;;
72156;SDS011;60035;52.122;5.406;2024-03-23T03:51:12;18.85;;;5.80;;
72156;SDS011;60035;52.122;5.406;2024-03-23T03:53:40;20.58;;;5.82;;
72156;SDS011;60035;52.122;5.406;2024-03-23T03:56:09;18.65;;;5.53;;
72156;SDS011;60035;52.122;5.406;2024-03-23T03:58:37;13.05;;;6.05;;
72156;SDS011;60035;52.122;5.406;2024-03-23T04:01:07;14.27;;;6.10;;
72156;SDS011;60035;52.122;5.406;2024-03-23T04:03:35;14.23;;;5.13;;
72156;SDS011;60035;52.122;5.406;2024-03-23T04:06:03;11.27;;;5.20;;
72156;SDS011;60035;52.122;5.406;2024-03-23T04:08:32;14.65;;;5.63;;
72156;SDS011;60035;52.122;5.406;2024-03-23T04:11:00;15.02;;;5.43;;
72156;SDS011;60035;52.122;5.406;2024-03-23T04:13:29;14.82;;;4.82;;
72156;SDS011;60035;52.122;5.406;2024-03-23T04:15:58;15.80;;;5.15;;
72156;SDS011;60035;52.122;5.406;2024-03-23T04:18:26;15.05;;;4.90;;
72156;SDS011;60035;52.122;5.406;2024-03-23T04:20:54;14.65;;;4.78;;
72156;SDS011;60035;52.122;5.406;2024-03-23T04:23:23;14.25;;;5.20;;
72156;SDS011;60035;52.122;5.406;2024-03-23T04:25:51;17.73;;;5.43;;
72156;SDS011;60035;52.122;5.406;2024-03-23T04:28:20;18.15;;;5.45;;
72156;SDS011;60035;52.122;5.406;2024-03-23T04:30:49;16.70;;;5.30;;
72156;SDS011;60035;52.122;5.406;2024-03-23T04:33:17;16.25;;;5.55;;
72156;SDS011;60035;52.122;5.406;2024-03-23T04:35:49;16.92;;;5.60;;
72156;SDS011;60035;52.122;5.406;2024-03-23T04:38:17;13.52;;;5.50;;
72156;SDS011;60035;52.122;5.406;2024-03-23T04:40:53;16.05;;;4.80;;
72156;SDS011;60035;52.122;5.406;2024-03-23T04:43:26;15.20;;;4.43;;
72156;SDS011;60035;52.122;5.406;2024-03-23T04:45:54;12.60;;;4.82;;
72156;SDS011;60035;52.122;5.406;2024-03-23T04:48:23;17.20;;;4.25;;
72156;SDS011;60035;52.122;5.406;2024-03-23T04:50:55;12.73;;;4.82;;
72156;SDS011;60035;52.122;5.406;2024-03-23T04:53:24;15.02;;;4.95;;
72156;SDS011;60035;52.122;5.406;2024-03-23T04:55:55;14.75;;;4.45;;
72156;SDS011;60035;52.122;5.406;2024-03-23T04:58:27;13.02;;;3.92;;
72156;SDS011;60035;52.122;5.406;2024-03-23T05:00:56;9.70;;;3.55;;
72156;SDS011;60035;52.122;5.406;2024-03-23T05:03:25;13.23;;;3.92;;
72156;SDS011;60035;52.122;5.406;2024-03-23T05:05:54;14.98;;;3.72;;
72156;SDS011;60035;52.122;5.406;2024-03-23T05:08:22;13.93;;;3.95;;
72156;SDS011;60035;52.122;5.406;2024-03-23T05:10:50;11.85;;;3.53;;
72156;SDS011;60035;52.122;5.406;2024-03-23T05:13:20;12.88;;;4.28;;
72156;SDS011;60035;52.122;5.406;2024-03-23T05:15:52;12.27;;;3.65;;
72156;SDS011;60035;52.122;5.406;2024-03-23T05:18:23;15.82;;;3.13;;
72156;SDS011;60035;52.122;5.406;2024-03-23T05:23:25;11.07;;;3.35;;
72156;SDS011;60035;52.122;5.406;2024-03-23T05:25:54;11.82;;;3.85;;
72156;SDS011;60035;52.122;5.406;2024-03-23T05:28:23;15.18;;;3.03;;
72156;SDS011;60035;52.122;5.406;2024-03-23T05:30:54;11.80;;;3.35;;
72156;SDS011;60035;52.122;5.406;2024-03-23T05:33:24;10.65;;;2.90;;
72156;SDS011;60035;52.122;5.406;2024-03-23T05:35:58;7.85;;;3.20;;
72156;SDS011;60035;52.122;5.406;2024-03-23T05:38:28;11.48;;;2.85;;
72156;SDS011;60035;52.122;5.406;2024-03-23T05:40:59;11.48;;;3.15;;
72156;SDS011;60035;52.122;5.406;2024-03-23T05:43:28;10.75;;;2.85;;
72156;SDS011;60035;52.122;5.406;2024-03-23T05:45:58;9.38;;;2.97;;
72156;SDS011;60035;52.122;5.406;2024-03-23T05:50:57;12.43;;;3.08;;
72156;SDS011;60035;52.122;5.406;2024-03-23T05:53:26;9.93;;;2.67;;
72156;SDS011;60035;52.122;5.406;2024-03-23T05:56:00;10.77;;;2.75;;
72156;SDS011;60035;52.122;5.406;2024-03-23T05:58:33;11.85;;;2.42;;
72156;SDS011;60035;52.122;5.406;2024-03-23T06:01:01;9.38;;;2.55;;
72156;SDS011;60035;52.122;5.406;2024-03-23T06:03:30;8.32;;;2.25;;
72156;SDS011;60035;52.122;5.406;2024-03-23T06:05:59;13.60;;;2.83;;
72156;SDS011;60035;52.122;5.406;2024-03-23T06:08:27;4.93;;;1.35;;
72156;SDS011;60035;52.122;5.406;2024-03-23T06:10:55;11.10;;;2.38;;
72156;SDS011;60035;52.122;5.406;2024-03-23T06:13:24;6.00;;;1.90;;
72156;SDS011;60035;52.122;5.406;2024-03-23T06:15:56;11.07;;;2.28;;
72156;SDS011;60035;52.122;5.406;2024-03-23T06:18:26;9.98;;;2.13;;
72156;SDS011;60035;52.122;5.406;2024-03-23T06:20:54;10.85;;;2.45;;
72156;SDS011;60035;52.122;5.406;2024-03-23T06:23:23;8.10;;;2.08;;
72156;SDS011;60035;52.122;5.406;2024-03-23T06:25:51;10.18;;;1.80;;
72156;SDS011;60035;52.122;5.406;2024-03-23T06:28:20;8.55;;;2.38;;
72156;SDS011;60035;52.122;5.406;2024-03-23T06:30:48;9.65;;;1.58;;
72156;SDS011;60035;52.122;5.406;2024-03-23T06:33:17;9.55;;;1.90;;
72156;SDS011;60035;52.122;5.406;2024-03-23T06:35:49;7.40;;;1.55;;
72156;SDS011;60035;52.122;5.406;2024-03-23T06:38:19;8.48;;;2.00;;
72156;SDS011;60035;52.122;5.406;2024-03-23T06:40:47;6.82;;;1.63;;
72156;SDS011;60035;52.122;5.406;2024-03-23T06:43:18;8.60;;;1.70;;
72156;SDS011;60035;52.122;5.406;2024-03-23T06:45:52;7.45;;;2.22;;
72156;SDS011;60035;52.122;5.406;2024-03-23T06:48:21;6.88;;;1.55;;
72156;SDS011;60035;52.122;5.406;2024-03-23T06:50:54;10.20;;;1.63;;
72156;SDS011;60035;52.122;5.406;2024-03-23T06:53:24;9.00;;;1.80;;
72156;SDS011;60035;52.122;5.406;2024-03-23T06:55:53;10.73;;;1.92;;
72156;SDS011;60035;52.122;5.406;2024-03-23T06:58:22;5.78;;;1.80;;
72156;SDS011;60035;52.122;5.406;2024-03-23T07:00:52;3.95;;;1.58;;
72156;SDS011;60035;52.122;5.406;2024-03-23T07:03:21;8.80;;;2.33;;
72156;SDS011;60035;52.122;5.406;2024-03-23T07:05:50;7.45;;;1.70;;
72156;SDS011;60035;52.122;5.406;2024-03-23T07:08:19;8.43;;;1.60;;
72156;SDS011;60035;52.122;5.406;2024-03-23T07:10:49;9.35;;;2.35;;
72156;SDS011;60035;52.122;5.406;2024-03-23T07:13:17;9.65;;;2.03;;
72156;SDS011;60035;52.122;5.406;2024-03-23T07:15:52;11.57;;;1.83;;
72156;SDS011;60035;52.122;5.406;2024-03-23T07:18:22;10.02;;;2.80;;
72156;SDS011;60035;52.122;5.406;2024-03-23T07:20:56;9.30;;;2.25;;
72156;SDS011;60035;52.122;5.406;2024-03-23T07:23:25;9.60;;;2.42;;
72156;SDS011;60035;52.122;5.406;2024-03-23T07:26:00;11.05;;;2.40;;
72156;SDS011;60035;52.122;5.406;2024-03-23T07:28:31;11.02;;;2.33;;
72156;SDS011;60035;52.122;5.406;2024-03-23T07:33:33;10.45;;;2.50;;
72156;SDS011;60035;52.122;5.406;2024-03-23T07:36:01;13.07;;;2.45;;
72156;SDS011;60035;52.122;5.406;2024-03-23T07:38:30;8.82;;;2.42;;
72156;SDS011;60035;52.122;5.406;2024-03-23T07:41:05;9.55;;;2.65;;
72156;SDS011;60035;52.122;5.406;2024-03-23T07:43:35;14.63;;;2.60;;
72156;SDS011;60035;52.122;5.406;2024-03-23T07:46:09;7.93;;;2.47;;
72156;SDS011;60035;52.122;5.406;2024-03-23T07:48:39;5.68;;;2.15;;
72156;SDS011;60035;52.122;5.406;2024-03-23T07:51:14;9.52;;;2.40;;
72156;SDS011;60035;52.122;5.406;2024-03-23T07:53:50;8.88;;;2.08;;
72156;SDS011;60035;52.122;5.406;2024-03-23T07:56:19;10.98;;;2.33;;
72156;SDS011;60035;52.122;5.406;2024-03-23T07:58:50;6.43;;;1.80;;
72156;SDS011;60035;52.122;5.406;2024-03-23T08:01:18;11.05;;;2.13;;
72156;SDS011;60035;52.122;5.406;2024-03-23T08:03:50;9.15;;;1.73;;
72156;SDS011;60035;52.122;5.406;2024-03-23T08:06:20;7.63;;;1.90;;
72156;SDS011;60035;52.122;5.406;2024-03-23T08:08:54;12.02;;;2.13;;
72156;SDS011;60035;52.122;5.406;2024-03-23T08:11:29;8.52;;;1.88;;
72156;SDS011;60035;52.122;5.406;2024-03-23T08:14:01;13.90;;;2.53;;
72156;SDS011;60035;52.122;5.406;2024-03-23T08:16:31;6.75;;;1.52;;
72156;SDS011;60035;52.122;5.406;2024-03-23T08:19:01;10.07;;;1.70;;
72156;SDS011;60035;52.122;5.406;2024-03-23T08:21:34;8.98;;;1.73;;
72156;SDS011;60035;52.122;5.406;2024-03-23T08:24:03;9.02;;;1.90;;
72156;SDS011;60035;52.122;5.406;2024-03-23T08:26:32;17.65;;;2.08;;
72156;SDS011;60035;52.122;5.406;2024-03-23T08:29:01;8.90;;;1.92;;
72156;SDS011;60035;52.122;5.406;2024-03-23T08:31:29;10.18;;;1.55;;
72156;SDS011;60035;52.122;5.406;2024-03-23T08:33:58;7.95;;;1.50;;
72156;SDS011;60035;52.122;5.406;2024-03-23T08:36:26;8.18;;;1.58;;
72156;SDS011;60035;52.122;5.406;2024-03-23T08:38:55;14.02;;;2.08;;
72156;SDS011;60035;52.122;5.406;2024-03-23T08:41:23;7.03;;;1.50;;
72156;SDS011;60035;52.122;5.406;2024-03-23T08:43:51;6.03;;;1.35;;
72156;SDS011;60035;52.122;5.406;2024-03-23T08:46:20;3.83;;;1.52;;
72156;SDS011;60035;52.122;5.406;2024-03-23T08:48:48;10.80;;;1.60;;
72156;SDS011;60035;52.122;5.406;2024-03-23T08:51:17;4.70;;;1.42;;
72156;SDS011;60035;52.122;5.406;2024-03-23T08:53:45;8.07;;;1.60;;
72156;SDS011;60035;52.122;5.406;2024-03-23T08:56:14;7.88;;;1.30;;
72156;SDS011;60035;52.122;5.406;2024-03-23T08:58:43;8.80;;;1.27;;
72156;SDS011;60035;52.122;5.406;2024-03-23T09:01:12;5.80;;;1.60;;
72156;SDS011;60035;52.122;5.406;2024-03-23T09:03:41;6.95;;;1.40;;
72156;SDS011;60035;52.122;5.406;2024-03-23T09:06:10;9.45;;;1.90;;
72156;SDS011;60035;52.122;5.406;2024-03-23T09:08:41;7.05;;;1.80;;
72156;SDS011;60035;52.122;5.406;2024-03-23T09:11:11;4.50;;;0.88;;
72156;SDS011;60035;52.122;5.406;2024-03-23T09:13:41;11.25;;;2.00;;
72156;SDS011;60035;52.122;5.406;2024-03-23T09:16:09;5.28;;;1.65;;
72156;SDS011;60035;52.122;5.406;2024-03-23T09:18:38;7.45;;;1.42;;
72156;SDS011;60035;52.122;5.406;2024-03-23T09:21:12;7.70;;;2.03;;
72156;SDS011;60035;52.122;5.406;2024-03-23T09:23:44;7.65;;;1.58;;
72156;SDS011;60035;52.122;5.406;2024-03-23T09:26:13;8.75;;;1.77;;
72156;SDS011;60035;52.122;5.406;2024-03-23T09:28:41;6.22;;;1.00;;
72156;SDS011;60035;52.122;5.406;2024-03-23T09:31:10;3.85;;;1.50;;
72156;SDS011;60035;52.122;5.406;2024-03-23T09:33:41;6.70;;;1.25;;
72156;SDS011;60035;52.122;5.406;2024-03-23T09:36:10;10.25;;;1.33;;
72156;SDS011;60035;52.122;5.406;2024-03-23T09:38:38;4.95;;;1.65;;
72156;SDS011;60035;52.122;5.406;2024-03-23T09:41:08;9.25;;;1.70;;
72156;SDS011;60035;52.122;5.406;2024-03-23T09:43:37;5.60;;;1.50;;
72156;SDS011;60035;52.122;5.406;2024-03-23T09:46:05;5.22;;;1.45;;
72156;SDS011;60035;52.122;5.406;2024-03-23T09:48:34;6.40;;;1.15;;
72156;SDS011;60035;52.122;5.406;2024-03-23T09:51:03;6.07;;;0.80;;
72156;SDS011;60035;52.122;5.406;2024-03-23T09:53:32;4.30;;;0.85;;
72156;SDS011;60035;52.122;5.406;2024-03-23T09:56:00;5.25;;;1.50;;
72156;SDS011;60035;52.122;5.406;2024-03-23T09:58:29;7.45;;;1.38;;
72156;SDS011;60035;52.122;5.406;2024-03-23T10:00:59;9.05;;;1.70;;
72156;SDS011;60035;52.122;5.406;2024-03-23T10:03:28;7.20;;;1.45;;
72156;SDS011;60035;52.122;5.406;2024-03-23T10:06:02;6.47;;;1.17;;
72156;SDS011;60035;52.122;5.406;2024-03-23T10:08:32;9.43;;;1.90;;
72156;SDS011;60035;52.122;5.406;2024-03-23T10:11:15;4.88;;;1.63;;
72156;SDS011;60035;52.122;5.406;2024-03-23T10:13:44;7.47;;;1.42;;
72156;SDS011;60035;52.122;5.406;2024-03-23T10:16:22;8.65;;;1.35;;
72156;SDS011;60035;52.122;5.406;2024-03-23T10:18:51;8.05;;;2.00;;
72156;SDS011;60035;52.122;5.406;2024-03-23T10:21:20;7.28;;;1.35;;
72156;SDS011;60035;52.122;5.406;2024-03-23T10:23:49;5.72;;;1.50;;
72156;SDS011;60035;52.122;5.406;2024-03-23T10:26:21;4.63;;;1.30;;
72156;SDS011;60035;52.122;5.406;2024-03-23T10:28:56;8.18;;;1.83;;
72156;SDS011;60035;52.122;5.406;2024-03-23T10:31:28;7.68;;;1.38;;
72156;SDS011;60035;52.122;5.406;2024-03-23T10:33:57;8.40;;;1.77;;
72156;SDS011;60035;52.122;5.406;2024-03-23T10:36:27;6.80;;;1.52;;
72156;SDS011;60035;52.122;5.406;2024-03-23T10:38:57;8.35;;;1.30;;
72156;SDS011;60035;52.122;5.406;2024-03-23T10:41:30;9.05;;;1.73;;
72156;SDS011;60035;52.122;5.406;2024-03-23T10:43:59;5.40;;;1.17;;
72156;SDS011;60035;52.122;5.406;2024-03-23T10:46:29;6.20;;;1.83;;
72156;SDS011;60035;52.122;5.406;2024-03-23T10:48:58;8.00;;;1.52;;
72156;SDS011;60035;52.122;5.406;2024-03-23T10:51:27;9.48;;;1.60;;
72156;SDS011;60035;52.122;5.406;2024-03-23T10:53:56;8.43;;;1.77;;
72156;SDS011;60035;52.122;5.406;2024-03-23T10:56:26;6.05;;;1.27;;
72156;SDS011;60035;52.122;5.406;2024-03-23T10:59:01;5.53;;;1.13;;
72156;SDS011;60035;52.122;5.406;2024-03-23T11:01:31;4.32;;;1.10;;
72156;SDS011;60035;52.122;5.406;2024-03-23T11:03:59;6.15;;;1.00;;
72156;SDS011;60035;52.122;5.406;2024-03-23T11:06:37;3.30;;;1.00;;
72156;SDS011;60035;52.122;5.406;2024-03-23T11:12:37;7.75;;;1.25;;
72156;SDS011;60035;52.122;5.406;2024-03-23T11:15:01;8.38;;;1.60;;
72156;SDS011;60035;52.122;5.406;2024-03-23T11:17:39;8.95;;;2.17;;
72156;SDS011;60035;52.122;5.406;2024-03-23T11:20:08;9.30;;;1.48;;
72156;SDS011;60035;52.122;5.406;2024-03-23T11:22:42;4.72;;;1.10;;
72156;SDS011;60035;52.122;5.406;2024-03-23T11:25:23;3.95;;;0.63;;
72156;SDS011;60035;52.122;5.406;2024-03-23T11:27:53;7.60;;;1.15;;
72156;SDS011;60035;52.122;5.406;2024-03-23T11:30:27;6.47;;;1.13;;
72156;SDS011;60035;52.122;5.406;2024-03-23T11:32:56;9.32;;;1.65;;
72156;SDS011;60035;52.122;5.406;2024-03-23T11:35:31;6.80;;;0.95;;
72156;SDS011;60035;52.122;5.406;2024-03-23T11:38:11;6.80;;;1.27;;
72156;SDS011;60035;52.122;5.406;2024-03-23T11:40:45;9.88;;;1.40;;
72156;SDS011;60035;52.122;5.406;2024-03-23T11:45:45;5.55;;;1.40;;
72156;SDS011;60035;52.122;5.406;2024-03-23T11:48:21;7.90;;;1.27;;
72156;SDS011;60035;52.122;5.406;2024-03-23T11:50:54;5.00;;;1.15;;
72156;SDS011;60035;52.122;5.406;2024-03-23T11:53:29;7.90;;;1.55;;
72156;SDS011;60035;52.122;5.406;2024-03-23T11:56:00;10.27;;;1.60;;
72156;SDS011;60035;52.122;5.406;2024-03-23T11:58:29;10.35;;;1.75;;
72156;SDS011;60035;52.122;5.406;2024-03-23T12:01:05;7.95;;;1.02;;
72156;SDS011;60035;52.122;5.406;2024-03-23T12:03:43;7.03;;;1.10;;
72156;SDS011;60035;52.122;5.406;2024-03-23T12:06:19;10.10;;;1.63;;
72156;SDS011;60035;52.122;5.406;2024-03-23T12:08:50;7.07;;;1.10;;
72156;SDS011;60035;52.122;5.406;2024-03-23T12:11:18;5.60;;;1.40;;
72156;SDS011;60035;52.122;5.406;2024-03-23T12:13:51;8.77;;;1.50;;
72156;SDS011;60035;52.122;5.406;2024-03-23T12:16:20;7.53;;;1.40;;
72156;SDS011;60035;52.122;5.406;2024-03-23T12:18:49;10.32;;;1.38;;
72156;SDS011;60035;52.122;5.406;2024-03-23T12:21:20;7.28;;;1.55;;
72156;SDS011;60035;52.122;5.406;2024-03-23T12:23:51;6.05;;;0.90;;
72156;SDS011;60035;52.122;5.406;2024-03-23T12:26:22;6.25;;;1.35;;
72156;SDS011;60035;52.122;5.406;2024-03-23T12:28:51;4.75;;;1.10;;
72156;SDS011;60035;52.122;5.406;2024-03-23T12:31:26;7.00;;;1.48;;
72156;SDS011;60035;52.122;5.406;2024-03-23T12:34:03;8.32;;;1.30;;
72156;SDS011;60035;52.122;5.406;2024-03-23T12:36:38;6.85;;;1.25;;
72156;SDS011;60035;52.122;5.406;2024-03-23T12:39:09;6.82;;;1.27;;
72156;SDS011;60035;52.122;5.406;2024-03-23T12:41:44;5.88;;;1.25;;
72156;SDS011;60035;52.122;5.406;2024-03-23T12:44:18;6.47;;;1.38;;
72156;SDS011;60035;52.122;5.406;2024-03-23T12:46:49;6.90;;;1.27;;
72156;SDS011;60035;52.122;5.406;2024-03-23T12:49:17;5.63;;;1.08;;
72156;SDS011;60035;52.122;5.406;2024-03-23T12:51:47;4.40;;;1.00;;
72156;SDS011;60035;52.122;5.406;2024-03-23T12:54:26;3.58;;;1.00;;
72156;SDS011;60035;52.122;5.406;2024-03-23T12:56:55;4.72;;;1.23;;
72156;SDS011;60035;52.122;5.406;2024-03-23T12:59:23;7.75;;;1.65;;
72156;SDS011;60035;52.122;5.406;2024-03-23T13:01:51;6.57;;;1.17;;
72156;SDS011;60035;52.122;5.406;2024-03-23T13:04:20;7.82;;;1.45;;
72156;SDS011;60035;52.122;5.406;2024-03-23T13:06:49;9.23;;;1.20;;
72156;SDS011;60035;52.122;5.406;2024-03-23T13:09:17;5.43;;;1.20;;
72156;SDS011;60035;52.122;5.406;2024-03-23T13:11:45;6.07;;;1.30;;
72156;SDS011;60035;52.122;5.406;2024-03-23T13:14:14;8.25;;;1.33;;
72156;SDS011;60035;52.122;5.406;2024-03-23T13:16:45;3.33;;;0.70;;
72156;SDS011;60035;52.122;5.406;2024-03-23T13:19:14;3.97;;;1.05;;
72156;SDS011;60035;52.122;5.406;2024-03-23T13:21:46;3.67;;;1.30;;
72156;SDS011;60035;52.122;5.406;2024-03-23T13:24:16;10.18;;;1.17;;
72156;SDS011;60035;52.122;5.406;2024-03-23T13:26:44;5.45;;;0.75;;
72156;SDS011;60035;52.122;5.406;2024-03-23T13:29:12;1.30;;;0.63;;
72156;SDS011;60035;52.122;5.406;2024-03-23T13:31:41;0.73;;;0.20;;
72156;SDS011;60035;52.122;5.406;2024-03-23T13:34:09;2.05;;;0.70;;
72156;SDS011;60035;52.122;5.406;2024-03-23T13:36:38;4.10;;;0.80;;
72156;SDS011;60035;52.122;5.406;2024-03-23T13:39:06;1.58;;;0.55;;
72156;SDS011;60035;52.122;5.406;2024-03-23T13:41:41;2.80;;;0.88;;
72156;SDS011;60035;52.122;5.406;2024-03-23T13:44:13;2.08;;;0.50;;
72156;SDS011;60035;52.122;5.406;2024-03-23T13:46:43;7.45;;;0.82;;
72156;SDS011;60035;52.122;5.406;2024-03-23T13:49:27;2.25;;;0.80;;
72156;SDS011;60035;52.122;5.406;2024-03-23T13:52:01;3.03;;;0.70;;
72156;SDS011;60035;52.122;5.406;2024-03-23T13:54:30;4.63;;;1.33;;
72156;SDS011;60035;52.122;5.406;2024-03-23T13:56:59;8.45;;;1.20;;
72156;SDS011;60035;52.122;5.406;2024-03-23T13:59:27;3.63;;;1.10;;
72156;SDS011;60035;52.122;5.406;2024-03-23T14:01:55;6.25;;;1.35;;
72156;SDS011;60035;52.122;5.406;2024-03-23T14:04:24;6.40;;;1.60;;
72156;SDS011;60035;52.122;5.406;2024-03-23T14:06:53;7.25;;;1.08;;
72156;SDS011;60035;52.122;5.406;2024-03-23T14:09:23;7.35;;;1.38;;
72156;SDS011;60035;52.122;5.406;2024-03-23T14:11:52;5.03;;;0.90;;
72156;SDS011;60035;52.122;5.406;2024-03-23T14:14:21;3.35;;;0.93;;
72156;SDS011;60035;52.122;5.406;2024-03-23T14:16:49;6.25;;;0.85;;
72156;SDS011;60035;52.122;5.406;2024-03-23T14:19:18;4.43;;;1.10;;
72156;SDS011;60035;52.122;5.406;2024-03-23T14:21:46;5.07;;;1.40;;
72156;SDS011;60035;52.122;5.406;2024-03-23T14:24:15;6.50;;;1.08;;
72156;SDS011;60035;52.122;5.406;2024-03-23T14:26:43;7.05;;;1.08;;
72156;SDS011;60035;52.122;5.406;2024-03-23T14:29:12;9.48;;;1.13;;
72156;SDS011;60035;52.122;5.406;2024-03-23T14:31:40;5.13;;;1.08;;
72156;SDS011;60035;52.122;5.406;2024-03-23T14:34:09;6.30;;;1.10;;
72156;SDS011;60035;52.122;5.406;2024-03-23T14:36:37;7.10;;;1.52;;
72156;SDS011;60035;52.122;5.406;2024-03-23T14:39:06;6.90;;;1.10;;
72156;SDS011;60035;52.122;5.406;2024-03-23T14:41:34;5.70;;;1.58;;
72156;SDS011;60035;52.122;5.406;2024-03-23T14:44:03;5.38;;;1.15;;
72156;SDS011;60035;52.122;5.406;2024-03-23T14:46:31;8.55;;;1.20;;
72156;SDS011;60035;52.122;5.406;2024-03-23T14:49:00;9.13;;;1.33;;
72156;SDS011;60035;52.122;5.406;2024-03-23T14:51:29;6.97;;;1.30;;
72156;SDS011;60035;52.122;5.406;2024-03-23T14:53:57;6.10;;;1.05;;
72156;SDS011;60035;52.122;5.406;2024-03-23T14:56:26;5.60;;;1.02;;
72156;SDS011;60035;52.122;5.406;2024-03-23T14:58:54;4.07;;;1.40;;
72156;SDS011;60035;52.122;5.406;2024-03-23T15:01:23;6.22;;;1.20;;
72156;SDS011;60035;52.122;5.406;2024-03-23T15:03:51;7.05;;;1.17;;
72156;SDS011;60035;52.122;5.406;2024-03-23T15:06:20;6.47;;;1.60;;
72156;SDS011;60035;52.122;5.406;2024-03-23T15:08:49;6.35;;;1.42;;
72156;SDS011;60035;52.122;5.406;2024-03-23T15:11:17;6.25;;;0.88;;
72156;SDS011;60035;52.122;5.406;2024-03-23T15:13:49;6.57;;;1.50;;
72156;SDS011;60035;52.122;5.406;2024-03-23T15:16:18;4.57;;;1.13;;
72156;SDS011;60035;52.122;5.406;2024-03-23T15:18:49;5.05;;;1.05;;
72156;SDS011;60035;52.122;5.406;2024-03-23T15:21:17;2.30;;;0.90;;
72156;SDS011;60035;52.122;5.406;2024-03-23T15:23:49;6.03;;;1.00;;
72156;SDS011;60035;52.122;5.406;2024-03-23T15:26:18;4.40;;;1.17;;
72156;SDS011;60035;52.122;5.406;2024-03-23T15:28:49;6.72;;;1.15;;
72156;SDS011;60035;52.122;5.406;2024-03-23T15:31:24;5.35;;;1.30;;
72156;SDS011;60035;52.122;5.406;2024-03-23T15:33:53;4.90;;;0.93;;
72156;SDS011;60035;52.122;5.406;2024-03-23T15:36:21;5.28;;;1.27;;
72156;SDS011;60035;52.122;5.406;2024-03-23T15:38:49;6.40;;;1.13;;
72156;SDS011;60035;52.122;5.406;2024-03-23T15:41:18;6.38;;;1.13;;
72156;SDS011;60035;52.122;5.406;2024-03-23T15:43:47;7.10;;;1.15;;
72156;SDS011;60035;52.122;5.406;2024-03-23T15:46:16;4.03;;;1.38;;
72156;SDS011;60035;52.122;5.406;2024-03-23T15:48:48;5.47;;;1.17;;
72156;SDS011;60035;52.122;5.406;2024-03-23T15:51:18;3.67;;;0.80;;
72156;SDS011;60035;52.122;5.406;2024-03-23T15:53:46;3.40;;;1.02;;
72156;SDS011;60035;52.122;5.406;2024-03-23T15:56:15;6.75;;;1.35;;
72156;SDS011;60035;52.122;5.406;2024-03-23T15:58:43;3.38;;;1.00;;
72156;SDS011;60035;52.122;5.406;2024-03-23T16:01:13;6.00;;;1.52;;
72156;SDS011;60035;52.122;5.406;2024-03-23T16:03:41;5.38;;;1.17;;
72156;SDS011;60035;52.122;5.406;2024-03-23T16:06:10;8.27;;;1.27;;